createdAt,value
2019-05-05T00:00:35.433Z,97685.69
2019-05-05T00:03:15.871Z,97687.95
2019-05-05T00:05:47.696Z,97673.96
2019-05-05T00:08:17.897Z,97683.46
2019-05-05T00:11:05.159Z,97682.23
2019-05-05T00:13:37.204Z,97682.31
2019-05-05T00:16:25.078Z,97682.97
2019-05-05T00:18:56.862Z,97684.77
2019-05-05T00:21:27.072Z,97681.91
2019-05-05T00:23:57.453Z,97680.89
2019-05-05T00:26:27.654Z,97675.87
2019-05-05T00:28:57.876Z,97677.53
2019-05-05T00:31:28.064Z,97679.52
2019-05-05T00:33:58.414Z,97678.84
2019-05-05T00:36:28.758Z,97680.73
2019-05-05T00:38:59.342Z,97695.80
2019-05-05T00:41:29.664Z,97710.64
2019-05-05T00:43:59.858Z,97713.80
2019-05-05T00:46:48.047Z,97709.27
2019-05-05T00:49:18.324Z,97717.39
2019-05-05T00:51:48.492Z,97714.13
2019-05-05T00:54:18.763Z,97716.69
2019-05-05T00:56:48.948Z,97726.57
2019-05-05T00:59:25.122Z,97732.23
2019-05-05T01:01:59.472Z,97735.08
2019-05-05T01:04:31.338Z,97738.88
2019-05-05T01:07:01.602Z,97733.21
2019-05-05T01:09:34.453Z,97736.55
2019-05-05T01:12:05.218Z,97746.77
2019-05-05T01:14:35.484Z,97747.03
2019-05-05T01:17:05.781Z,97749.45
2019-05-05T01:19:35.979Z,97756.36
2019-05-05T01:22:06.327Z,97758.05
2019-05-05T01:24:36.884Z,97762.38
2019-05-05T01:27:07.382Z,97761.13
2019-05-05T01:29:37.602Z,97772.28
2019-05-05T01:32:09.621Z,97774.51
2019-05-05T01:34:48.634Z,97783.61
2019-05-05T01:37:35.190Z,97787.57
2019-05-05T01:40:27.553Z,97790.42
2019-05-05T01:42:57.767Z,97800.42
2019-05-05T01:45:28.055Z,97795.94
2019-05-05T01:47:58.255Z,97790.75
2019-05-05T01:50:28.486Z,97792.73
2019-05-05T01:52:58.660Z,97796.33
2019-05-05T01:55:28.950Z,97789.05
2019-05-05T01:57:59.377Z,97791.88
2019-05-05T02:00:29.840Z,97798.41
2019-05-05T02:03:00.025Z,97798.98
2019-05-05T02:05:30.211Z,97795.20
2019-05-05T02:08:00.523Z,97797.85
2019-05-05T02:10:30.799Z,97803.27
2019-05-05T02:13:01.098Z,97813.86
2019-05-05T02:15:31.301Z,97811.77
2019-05-05T02:18:01.853Z,97805.28
2019-05-05T02:20:45.451Z,97806.91
2019-05-05T02:23:17.534Z,97808.89
2019-05-05T02:25:47.969Z,97805.77
2019-05-05T02:28:19.554Z,97801.93
2019-05-05T02:31:00.027Z,97807.58
2019-05-05T02:33:31.076Z,97803.27
2019-05-05T02:36:01.435Z,97811.58
2019-05-05T02:38:31.609Z,97808.80
2019-05-05T02:41:05.059Z,97813.73
2019-05-05T02:43:37.183Z,97811.22
2019-05-05T02:46:25.542Z,97814.53
2019-05-05T02:48:58.459Z,97812.28
2019-05-05T02:51:30.040Z,97808.30
2019-05-05T02:54:04.406Z,97813.16
2019-05-05T02:56:38.391Z,97817.84
2019-05-05T02:59:11.058Z,97819.74
2019-05-05T03:01:46.168Z,97816.70
2019-05-05T03:04:16.435Z,97816.64
2019-05-05T03:06:49.653Z,97811.72
2019-05-05T03:09:21.291Z,97809.88
2019-05-05T03:11:54.849Z,97816.55
2019-05-05T03:14:25.559Z,97809.36
2019-05-05T03:16:56.285Z,97810.19
2019-05-05T03:19:27.118Z,97812.73
2019-05-05T03:21:57.845Z,97815.25
2019-05-05T03:24:28.502Z,97805.42
2019-05-05T03:26:58.708Z,97813.24
2019-05-05T03:29:29.511Z,97813.77
2019-05-05T03:32:00.438Z,97811.22
2019-05-05T03:34:31.720Z,97812.95
2019-05-05T03:37:04.227Z,97820.16
2019-05-05T03:39:37.032Z,97823.73
2019-05-05T03:42:13.844Z,97820.89
2019-05-05T03:44:54.556Z,97817.95
2019-05-05T03:47:25.157Z,97826.18
2019-05-05T03:49:56.375Z,97824.11
2019-05-05T03:52:26.994Z,97834.05
2019-05-05T03:54:57.478Z,97830.20
2019-05-05T03:57:27.748Z,97830.11
2019-05-05T03:59:58.714Z,97834.42
2019-05-05T04:02:34.087Z,97833.73
2019-05-05T04:05:20.234Z,97820.90
2019-05-05T04:07:51.066Z,97830.17
2019-05-05T04:10:21.322Z,97837.41
2019-05-05T04:12:53.888Z,97842.03
2019-05-05T04:15:24.462Z,97843.44
2019-05-05T04:18:14.534Z,97847.29
2019-05-05T04:20:44.755Z,97850.20
2019-05-05T04:23:14.928Z,97851.61
2019-05-05T04:25:45.194Z,97857.43
2019-05-05T04:28:15.400Z,97857.94
2019-05-05T04:30:45.640Z,97862.89
2019-05-05T04:33:15.837Z,97866.28
2019-05-05T04:35:46.060Z,97864.92
2019-05-05T04:38:16.272Z,97872.45
2019-05-05T04:40:46.508Z,97876.63
2019-05-05T04:43:16.697Z,97879.61
2019-05-05T04:45:46.930Z,97877.66
2019-05-05T04:48:24.580Z,97873.83
2019-05-05T04:50:56.452Z,97883.31
2019-05-05T04:53:31.227Z,97891.59
2019-05-05T04:56:01.449Z,97887.56
2019-05-05T04:58:33.488Z,97882.20
2019-05-05T05:01:04.646Z,97880.20
2019-05-05T05:03:43.881Z,97886.28
2019-05-05T05:06:15.814Z,97886.50
2019-05-05T05:08:46.024Z,97898.90
2019-05-05T05:11:16.238Z,97902.70
2019-05-05T05:13:46.431Z,97902.38
2019-05-05T05:16:16.642Z,97898.01
2019-05-05T05:18:46.824Z,97903.55
2019-05-05T05:21:17.056Z,97889.70
2019-05-05T05:23:47.270Z,97899.48
2019-05-05T05:26:17.501Z,97900.22
2019-05-05T05:28:47.686Z,97893.22
2019-05-05T05:31:17.908Z,97904.52
2019-05-05T05:33:48.118Z,97905.42
2019-05-05T05:36:18.345Z,97911.23
2019-05-05T05:38:50.184Z,97918.27
2019-05-05T05:41:38.306Z,97924.33
2019-05-05T05:44:22.020Z,97924.39
2019-05-05T05:46:59.652Z,97932.15
2019-05-05T05:49:40.507Z,97938.59
2019-05-05T05:52:15.807Z,97949.54
2019-05-05T05:54:44.245Z,97956.96
2019-05-05T05:57:14.559Z,97958.91
2019-05-05T05:59:44.757Z,97971.22
2019-05-05T06:02:15.725Z,97969.39
2019-05-05T06:04:46.033Z,97980.09
2019-05-05T06:07:16.297Z,97975.48
2019-05-05T06:09:46.503Z,97978.63
2019-05-05T06:12:16.789Z,97982.23
2019-05-05T06:14:46.985Z,97988.99
2019-05-05T06:17:17.199Z,97989.29
2019-05-05T06:19:47.499Z,97991.34
2019-05-05T06:22:28.176Z,97993.69
2019-05-05T06:24:49.581Z,97996.39
2019-05-05T06:27:19.824Z,98001.41
2019-05-05T06:29:50.028Z,98001.64
2019-05-05T06:32:20.248Z,98006.90
2019-05-05T06:34:50.471Z,98013.03
2019-05-05T06:37:20.779Z,98017.69
2019-05-05T06:39:54.300Z,98017.23
2019-05-05T06:42:35.267Z,98023.33
2019-05-05T06:45:09.182Z,98024.42
2019-05-05T06:47:41.035Z,98021.84
2019-05-05T06:50:13.959Z,98019.11
2019-05-05T06:52:47.049Z,98021.19
2019-05-05T06:55:16.283Z,98019.59
2019-05-05T06:57:46.475Z,98031.54
2019-05-05T07:00:17.095Z,98029.13
2019-05-05T07:03:07.861Z,98029.72
2019-05-05T07:05:38.226Z,98026.86
2019-05-05T07:08:08.466Z,98029.75
2019-05-05T07:10:38.677Z,98035.63
2019-05-05T07:13:08.879Z,98036.86
2019-05-05T07:15:39.082Z,98035.14
2019-05-05T07:18:09.273Z,98032.05
2019-05-05T07:20:39.470Z,98030.67
2019-05-05T07:23:09.673Z,98034.23
2019-05-05T07:25:43.146Z,98031.75
2019-05-05T07:28:11.761Z,98036.03
2019-05-05T07:30:44.138Z,98039.98
2019-05-05T07:33:14.912Z,98044.44
2019-05-05T07:35:56.639Z,98043.83
2019-05-05T07:38:21.499Z,98052.20
2019-05-05T07:40:51.684Z,98051.60
2019-05-05T07:43:23.873Z,98055.82
2019-05-05T07:45:54.079Z,98053.02
2019-05-05T07:48:24.412Z,98058.17
2019-05-05T07:51:01.875Z,98065.38
2019-05-05T07:53:26.533Z,98068.64
2019-05-05T07:55:57.714Z,98071.05
2019-05-05T07:58:27.950Z,98075.59
2019-05-05T08:00:58.228Z,98083.67
2019-05-05T08:03:28.479Z,98087.69
2019-05-05T08:05:58.684Z,98088.90
2019-05-05T08:08:28.999Z,98097.47
2019-05-05T08:10:59.185Z,98093.61
2019-05-05T08:13:29.439Z,98097.83
2019-05-05T08:16:03.963Z,98094.73
2019-05-05T08:18:52.011Z,98096.98
2019-05-05T08:21:24.054Z,98102.14
2019-05-05T08:23:55.947Z,98105.66
2019-05-05T08:26:44.080Z,98093.20
2019-05-05T08:29:31.159Z,98092.80
2019-05-05T08:32:06.031Z,98092.48
2019-05-05T08:34:36.314Z,98092.33
2019-05-05T08:37:06.580Z,98091.97
2019-05-05T08:39:36.798Z,98087.03
2019-05-05T08:42:07.072Z,98088.39
2019-05-05T08:44:37.306Z,98091.30
2019-05-05T08:47:07.494Z,98090.80
2019-05-05T08:49:37.713Z,98089.05
2019-05-05T08:52:07.948Z,98096.59
2019-05-05T08:54:38.216Z,98093.34
2019-05-05T08:57:08.410Z,98091.39
2019-05-05T08:59:38.642Z,98086.36
2019-05-05T09:02:08.833Z,98094.02
2019-05-05T09:04:39.109Z,98092.02
2019-05-05T09:07:09.436Z,98097.59
2019-05-05T09:09:39.659Z,98101.45
2019-05-05T09:12:09.858Z,98100.05
2019-05-05T09:14:40.067Z,98103.06
2019-05-05T09:17:10.256Z,98099.06
2019-05-05T09:19:40.478Z,98096.59
2019-05-05T09:22:10.698Z,98095.87
2019-05-05T09:24:59.036Z,98095.25
2019-05-05T09:27:37.055Z,98096.19
2019-05-05T09:30:09.046Z,98090.09
2019-05-05T09:32:39.306Z,98086.64
2019-05-05T09:35:09.854Z,98087.08
2019-05-05T09:37:53.588Z,98080.49
2019-05-05T09:40:36.582Z,98073.80
2019-05-05T09:43:08.414Z,98075.43
2019-05-05T09:45:40.058Z,98075.19
2019-05-05T09:48:10.338Z,98069.88
2019-05-05T09:50:40.566Z,98068.23
2019-05-05T09:53:10.884Z,98070.34
2019-05-05T09:55:41.088Z,98069.77
2019-05-05T09:58:13.532Z,98084.19
2019-05-05T10:00:45.442Z,98075.63
2019-05-05T10:03:15.759Z,98079.84
2019-05-05T10:05:46.709Z,98076.27
2019-05-05T10:08:16.905Z,98078.67
2019-05-05T10:10:47.110Z,98073.84
2019-05-05T10:13:17.290Z,98074.38
2019-05-05T10:15:47.508Z,98073.69
2019-05-05T10:18:18.671Z,98073.09
2019-05-05T10:20:48.980Z,98075.66
2019-05-05T10:23:19.176Z,98074.12
2019-05-05T10:25:50.471Z,98076.45
2019-05-05T10:28:20.691Z,98072.87
2019-05-05T10:30:50.999Z,98072.27
2019-05-05T10:33:21.181Z,98070.50
2019-05-05T10:35:51.408Z,98068.62
2019-05-05T10:38:23.474Z,98063.81
2019-05-05T10:40:53.767Z,98059.57
2019-05-05T10:43:24.017Z,98051.33
2019-05-05T10:45:54.731Z,98053.88
2019-05-05T10:48:25.029Z,98047.61
2019-05-05T10:50:55.234Z,98036.72
2019-05-05T10:53:25.456Z,98041.52
2019-05-05T10:56:15.025Z,98048.63
2019-05-05T10:58:45.268Z,98042.77
2019-05-05T11:01:15.480Z,98041.39
2019-05-05T11:03:45.838Z,98043.80
2019-05-05T11:06:16.195Z,98043.83
2019-05-05T11:08:46.767Z,98042.08
2019-05-05T11:11:17.061Z,98040.36
2019-05-05T11:13:48.034Z,98040.38
2019-05-05T11:16:18.228Z,98038.08
2019-05-05T11:18:48.905Z,98033.72
2019-05-05T11:21:19.129Z,98034.91
2019-05-05T11:23:49.553Z,98038.75
2019-05-05T11:26:19.776Z,98039.79
2019-05-05T11:28:50.009Z,98033.78
2019-05-05T11:31:20.217Z,98036.78
2019-05-05T11:33:58.076Z,98042.44
2019-05-05T11:36:29.923Z,98051.09
2019-05-05T11:39:00.122Z,98043.84
2019-05-05T11:41:30.352Z,98050.09
2019-05-05T11:44:00.617Z,98044.28
2019-05-05T11:46:30.835Z,98052.73
2019-05-05T11:49:01.035Z,98062.63
2019-05-05T11:51:31.249Z,98061.57
2019-05-05T11:54:01.439Z,98081.55
2019-05-05T11:56:31.630Z,98072.72
2019-05-05T11:59:03.753Z,98076.43
2019-05-05T12:01:33.787Z,98073.63
2019-05-05T12:04:05.809Z,98078.38
2019-05-05T12:06:36.050Z,98078.06
2019-05-05T12:09:10.683Z,98082.58
2019-05-05T12:11:40.988Z,98083.80
2019-05-05T12:14:14.294Z,98090.85
2019-05-05T12:16:44.649Z,98087.40
2019-05-05T12:19:14.851Z,98083.09
2019-05-05T12:21:45.071Z,98081.81
2019-05-05T12:24:16.917Z,98079.22
2019-05-05T12:26:48.777Z,98068.56
2019-05-05T12:29:18.992Z,98070.34
2019-05-05T12:31:49.663Z,98060.09
2019-05-05T12:34:19.883Z,98067.07
2019-05-05T12:36:50.089Z,98072.37
2019-05-05T12:39:20.289Z,98057.98
2019-05-05T12:41:50.504Z,98054.51
2019-05-05T12:44:23.639Z,98054.17
2019-05-05T12:46:55.601Z,98067.05
2019-05-05T12:49:25.918Z,98064.75
2019-05-05T12:51:56.131Z,98058.18
2019-05-05T12:54:26.906Z,98062.28
2019-05-05T12:56:58.345Z,98051.53
2019-05-05T12:59:28.564Z,98051.11
2019-05-05T13:01:58.830Z,98056.98
2019-05-05T13:04:29.054Z,98054.23
2019-05-05T13:06:59.270Z,98063.92
2019-05-05T13:09:29.468Z,98062.02
2019-05-05T13:11:59.768Z,98059.84
2019-05-05T13:14:29.992Z,98066.61
2019-05-05T13:17:00.209Z,98058.64
2019-05-05T13:19:35.050Z,98061.05
2019-05-05T13:22:25.493Z,98050.22
2019-05-05T13:25:06.642Z,98058.15
2019-05-05T13:27:38.496Z,98058.16
2019-05-05T13:30:09.746Z,98061.92
2019-05-05T13:32:39.966Z,98064.91
2019-05-05T13:35:10.801Z,98066.44
2019-05-05T13:37:41.018Z,98067.31
2019-05-05T13:40:11.442Z,98068.22
2019-05-05T13:42:43.865Z,98062.47
2019-05-05T13:45:18.322Z,98063.06
2019-05-05T13:47:48.526Z,98070.10
2019-05-05T13:50:26.468Z,98064.92
2019-05-05T13:52:56.720Z,98059.74
2019-05-05T13:55:26.923Z,98055.48
2019-05-05T13:57:58.290Z,98060.64
2019-05-05T14:00:28.748Z,98064.46
2019-05-05T14:02:58.967Z,98061.50
2019-05-05T14:05:29.324Z,98062.92
2019-05-05T14:07:59.526Z,98063.11
2019-05-05T14:10:29.838Z,98061.75
2019-05-05T14:13:00.038Z,98058.94
2019-05-05T14:15:30.272Z,98061.70
2019-05-05T14:18:00.492Z,98061.70
2019-05-05T14:20:30.719Z,98061.56
2019-05-05T14:23:00.918Z,98063.88
2019-05-05T14:25:32.721Z,98057.39
2019-05-05T14:28:03.763Z,98054.52
2019-05-05T14:30:48.144Z,98066.48
2019-05-05T14:33:25.882Z,98069.44
2019-05-05T14:36:09.668Z,98066.33
2019-05-05T14:38:44.468Z,98067.09
2019-05-05T14:41:14.660Z,98065.91
2019-05-05T14:43:44.942Z,98062.58
2019-05-05T14:46:15.263Z,98068.15
2019-05-05T14:48:45.485Z,98068.59
2019-05-05T14:51:15.861Z,98061.41
2019-05-05T14:53:46.882Z,98057.48
2019-05-05T14:56:17.582Z,98058.39
2019-05-05T14:58:47.870Z,98058.38
2019-05-05T15:01:18.115Z,98055.19
2019-05-05T15:03:48.372Z,98048.24
2019-05-05T15:06:34.337Z,98048.52
2019-05-05T15:09:07.767Z,98048.83
2019-05-05T15:11:53.851Z,98045.98
2019-05-05T15:14:24.458Z,98043.72
2019-05-05T15:16:54.700Z,98045.89
2019-05-05T15:19:36.795Z,98044.06
2019-05-05T15:22:07.065Z,98046.98
2019-05-05T15:24:37.304Z,98050.27
2019-05-05T15:27:07.468Z,98061.73
2019-05-05T15:29:37.688Z,98055.44
2019-05-05T15:32:07.905Z,98056.78
2019-05-05T15:34:38.137Z,98058.69
2019-05-05T15:37:08.419Z,98056.96
2019-05-05T15:39:38.644Z,98060.05
2019-05-05T15:42:08.929Z,98058.30
2019-05-05T15:44:39.227Z,98058.83
2019-05-05T15:47:09.485Z,98053.73
2019-05-05T15:49:39.679Z,98061.00
2019-05-05T15:52:09.982Z,98050.23
2019-05-05T15:54:40.180Z,98057.19
2019-05-05T15:57:11.900Z,98059.45
2019-05-05T15:59:43.652Z,98056.31
2019-05-05T16:02:13.987Z,98056.14
2019-05-05T16:04:44.219Z,98059.23
2019-05-05T16:07:14.460Z,98050.75
2019-05-05T16:09:46.786Z,98050.37
2019-05-05T16:12:16.579Z,98049.27
2019-05-05T16:14:48.538Z,98048.80
2019-05-05T16:17:26.148Z,98044.97
2019-05-05T16:19:58.055Z,98045.84
2019-05-05T16:22:35.620Z,98049.77
2019-05-05T16:25:10.983Z,98047.97
2019-05-05T16:27:44.635Z,98045.92
2019-05-05T16:30:17.031Z,98057.34
2019-05-05T16:32:47.326Z,98055.75
2019-05-05T16:35:19.183Z,98060.41
2019-05-05T16:37:49.400Z,98059.00
2019-05-05T16:40:22.964Z,98056.87
2019-05-05T16:42:54.169Z,98057.63
2019-05-05T16:45:25.741Z,98055.80
2019-05-05T16:47:57.813Z,98051.86
2019-05-05T16:50:30.065Z,98054.39
2019-05-05T16:53:04.035Z,98050.93
2019-05-05T16:55:42.422Z,98047.78
2019-05-05T16:58:13.919Z,98052.11
2019-05-05T17:00:44.275Z,98050.63
2019-05-05T17:03:14.505Z,98048.97
2019-05-05T17:05:46.852Z,98047.94
2019-05-05T17:08:16.631Z,98047.08
2019-05-05T17:10:47.324Z,98048.27
2019-05-05T17:13:21.627Z,98050.48
2019-05-05T17:15:56.238Z,98052.97
2019-05-05T17:18:46.451Z,98048.44
2019-05-05T17:21:21.215Z,98043.24
2019-05-05T17:23:51.471Z,98050.73
2019-05-05T17:26:24.151Z,98048.13
2019-05-05T17:28:54.095Z,98056.48
2019-05-05T17:31:24.514Z,98050.80
2019-05-05T17:33:54.764Z,98053.37
2019-05-05T17:36:25.030Z,98053.00
2019-05-05T17:38:55.274Z,98055.63
2019-05-05T17:41:45.480Z,98052.20
2019-05-05T17:44:24.210Z,98051.84
2019-05-05T17:47:08.188Z,98054.36
2019-05-05T17:49:56.184Z,98057.81
2019-05-05T17:52:46.599Z,98058.31
2019-05-05T17:55:34.640Z,98063.58
2019-05-05T17:58:05.402Z,98066.76
2019-05-05T18:00:37.459Z,98073.44
2019-05-05T18:03:07.684Z,98079.92
2019-05-05T18:05:57.918Z,98084.71
2019-05-05T18:08:44.734Z,98080.70
2019-05-05T18:11:28.720Z,98080.02
2019-05-05T18:14:00.614Z,98083.43
2019-05-05T18:16:30.849Z,98087.80
2019-05-05T18:19:01.072Z,98089.34
2019-05-05T18:21:32.265Z,98083.41
2019-05-05T18:24:03.281Z,98085.69
2019-05-05T18:26:35.176Z,98090.44
2019-05-05T18:29:07.489Z,98095.37
2019-05-05T18:31:37.758Z,98098.81
2019-05-05T18:34:07.980Z,98103.06
2019-05-05T18:36:38.204Z,98109.94
2019-05-05T18:39:09.268Z,98112.40
2019-05-05T18:41:41.108Z,98116.21
2019-05-05T18:44:20.464Z,98119.16
2019-05-05T18:47:10.987Z,98120.56
2019-05-05T18:49:40.861Z,98114.91
2019-05-05T18:52:11.225Z,98120.91
2019-05-05T18:54:43.449Z,98124.34
2019-05-05T18:57:13.637Z,98123.72
2019-05-05T18:59:44.742Z,98124.24
2019-05-05T19:02:16.874Z,98125.99
2019-05-05T19:05:04.941Z,98128.98
2019-05-05T19:07:52.346Z,98126.80
2019-05-05T19:10:11.855Z,98130.72
2019-05-05T19:12:44.148Z,98132.22
2019-05-05T19:15:14.636Z,98135.91
2019-05-05T19:17:44.866Z,98137.73
2019-05-05T19:20:20.004Z,98138.30
2019-05-05T19:22:51.881Z,98139.39
2019-05-05T19:25:24.155Z,98145.83
2019-05-05T19:27:55.900Z,98145.66
2019-05-05T19:30:26.080Z,98143.27
2019-05-05T19:32:56.275Z,98149.22
2019-05-05T19:35:40.697Z,98149.47
2019-05-05T19:37:58.591Z,98152.93
2019-05-05T19:40:28.818Z,98154.72
2019-05-05T19:42:59.042Z,98159.16
2019-05-05T19:45:29.279Z,98157.36
2019-05-05T19:47:59.483Z,98154.41
2019-05-05T19:50:34.313Z,98150.45
2019-05-05T19:53:06.226Z,98155.27
2019-05-05T19:55:36.537Z,98151.22
2019-05-05T19:58:06.729Z,98157.97
2019-05-05T20:00:38.632Z,98154.09
2019-05-05T20:03:08.949Z,98159.00
2019-05-05T20:05:39.162Z,98154.04
2019-05-05T20:08:09.365Z,98164.65
2019-05-05T20:10:40.013Z,98159.73
2019-05-05T20:13:10.265Z,98158.97
2019-05-05T20:15:44.139Z,98161.45
2019-05-05T20:18:14.244Z,98158.91
2019-05-05T20:20:44.670Z,98157.26
2019-05-05T20:23:14.915Z,98155.95
2019-05-05T20:25:45.141Z,98152.59
2019-05-05T20:28:15.567Z,98150.28
2019-05-05T20:30:45.805Z,98155.47
2019-05-05T20:33:26.707Z,98149.63
2019-05-05T20:35:58.549Z,98150.88
2019-05-05T20:38:33.071Z,98153.58
2019-05-05T20:41:10.547Z,98145.77
2019-05-05T20:43:44.500Z,98149.22
2019-05-05T20:46:14.012Z,98149.63
2019-05-05T20:48:44.975Z,98151.76
2019-05-05T20:51:15.383Z,98144.58
2019-05-05T20:53:48.884Z,98145.19
2019-05-05T20:56:17.485Z,98149.81
2019-05-05T20:58:47.732Z,98149.06
2019-05-05T21:01:17.927Z,98148.29
2019-05-05T21:03:48.155Z,98151.14
2019-05-05T21:06:18.377Z,98151.23
2019-05-05T21:08:48.562Z,98155.30
2019-05-05T21:11:18.768Z,98159.16
2019-05-05T21:13:48.973Z,98165.53
2019-05-05T21:16:19.182Z,98168.53
2019-05-05T21:18:49.378Z,98167.08
2019-05-05T21:21:21.216Z,98171.00
2019-05-05T21:23:54.608Z,98166.02
2019-05-05T21:26:26.668Z,98168.66
2019-05-05T21:28:56.867Z,98165.16
2019-05-05T21:31:27.098Z,98162.83
2019-05-05T21:33:58.416Z,98167.13
2019-05-05T21:36:28.640Z,98167.61
2019-05-05T21:38:58.828Z,98166.83
2019-05-05T21:41:29.022Z,98168.30
2019-05-05T21:43:59.252Z,98166.63
2019-05-05T21:46:29.462Z,98167.95
2019-05-05T21:48:59.677Z,98162.18
2019-05-05T21:51:31.536Z,98168.88
2019-05-05T21:54:19.789Z,98169.10
2019-05-05T21:57:09.926Z,98164.86
2019-05-05T21:59:52.978Z,98165.55
2019-05-05T22:02:12.412Z,98159.11
2019-05-05T22:04:42.616Z,98167.73
2019-05-05T22:07:14.522Z,98158.94
2019-05-05T22:09:44.900Z,98160.02
2019-05-05T22:12:15.102Z,98157.81
2019-05-05T22:14:45.312Z,98159.84
2019-05-05T22:17:15.615Z,98163.36
2019-05-05T22:19:47.460Z,98155.53
2019-05-05T22:22:19.327Z,98160.08
2019-05-05T22:24:49.527Z,98158.13
2019-05-05T22:27:19.758Z,98162.90
2019-05-05T22:29:50.003Z,98163.09
2019-05-05T22:32:20.240Z,98164.00
2019-05-05T22:34:50.443Z,98171.64
2019-05-05T22:37:20.691Z,98167.26
2019-05-05T22:39:50.874Z,98161.63
2019-05-05T22:42:21.102Z,98162.39
2019-05-05T22:44:51.302Z,98164.79
2019-05-05T22:47:23.502Z,98171.73
2019-05-05T22:49:53.915Z,98168.53
2019-05-05T22:52:25.528Z,98170.68
2019-05-05T22:54:55.866Z,98168.50
2019-05-05T22:57:26.073Z,98168.62
2019-05-05T22:59:56.302Z,98166.75
2019-05-05T23:02:28.177Z,98162.75
2019-05-05T23:05:00.502Z,98165.42
2019-05-05T23:07:34.806Z,98165.47
2019-05-05T23:10:06.207Z,98168.98
2019-05-05T23:12:36.391Z,98169.50
2019-05-05T23:15:10.258Z,98166.16
2019-05-05T23:17:43.798Z,98171.69
2019-05-05T23:20:36.625Z,98175.33
2019-05-05T23:23:11.365Z,98176.46
2019-05-05T23:25:45.642Z,98177.09
2019-05-05T23:28:15.124Z,98175.36
2019-05-05T23:30:45.349Z,98172.52
2019-05-05T23:33:15.548Z,98173.78
2019-05-05T23:35:45.765Z,98173.53
2019-05-05T23:38:15.972Z,98171.39
2019-05-05T23:40:46.205Z,98174.61
2019-05-05T23:43:16.505Z,98181.00
2019-05-05T23:45:46.726Z,98184.89
2019-05-05T23:48:16.921Z,98179.44
2019-05-05T23:50:47.155Z,98182.09
2019-05-05T23:53:17.353Z,98176.42
2019-05-05T23:55:47.598Z,98176.28
2019-05-05T23:58:17.805Z,98177.03
